createdAt,value
2018-07-29T00:04:04.990Z,20.20
2018-07-29T00:06:33.034Z,20.20
2018-07-29T00:09:01.106Z,20.20
2018-07-29T00:11:29.162Z,20.10
2018-07-29T00:13:56.566Z,20.10
2018-07-29T00:18:52.510Z,20.20
2018-07-29T00:21:20.560Z,20.20
2018-07-29T00:23:48.597Z,20.20
2018-07-29T00:28:43.822Z,20.10
2018-07-29T00:31:11.254Z,20.00
2018-07-29T00:33:38.669Z,20.00
2018-07-29T00:36:06.709Z,20.00
2018-07-29T00:38:34.099Z,19.90
2018-07-29T00:41:01.489Z,19.90
2018-07-29T00:43:28.865Z,19.90
2018-07-29T00:45:56.246Z,19.80
2018-07-29T00:48:24.315Z,19.80
2018-07-29T00:50:52.379Z,19.70
2018-07-29T00:53:20.434Z,19.70
2018-07-29T00:55:48.489Z,19.60
2018-07-29T00:58:16.544Z,19.60
2018-07-29T01:00:44.586Z,19.60
2018-07-29T01:03:12.638Z,19.60
2018-07-29T01:05:40.692Z,19.60
2018-07-29T01:08:08.734Z,19.60
2018-07-29T01:10:36.790Z,19.60
2018-07-29T01:13:04.911Z,19.60
2018-07-29T01:15:32.974Z,19.60
2018-07-29T01:18:01.011Z,19.60
2018-07-29T01:22:56.246Z,19.70
2018-07-29T01:25:24.299Z,19.70
2018-07-29T01:27:52.367Z,19.70
2018-07-29T01:30:20.414Z,19.70
2018-07-29T01:32:48.499Z,19.70
2018-07-29T01:35:16.549Z,19.60
2018-07-29T01:37:44.602Z,19.60
2018-07-29T01:40:12.730Z,19.50
2018-07-29T01:42:40.775Z,19.40
2018-07-29T01:45:08.818Z,19.40
2018-07-29T01:47:36.897Z,19.40
2018-07-29T01:50:04.979Z,19.30
2018-07-29T01:52:33.358Z,19.30
2018-07-29T01:55:01.411Z,19.20
2018-07-29T01:57:29.567Z,19.20
2018-07-29T01:59:57.673Z,19.20
2018-07-29T02:02:25.716Z,19.20
2018-07-29T02:07:21.602Z,19.20
2018-07-29T02:09:49.658Z,19.10
2018-07-29T02:12:17.714Z,19.20
2018-07-29T02:14:45.780Z,19.10
2018-07-29T02:17:13.818Z,19.10
2018-07-29T02:19:41.857Z,19.00
2018-07-29T02:22:09.922Z,19.00
2018-07-29T02:24:37.974Z,18.90
2018-07-29T02:27:06.043Z,18.90
2018-07-29T02:29:34.093Z,19.00
2018-07-29T02:32:02.138Z,18.90
2018-07-29T02:34:30.193Z,18.90
2018-07-29T02:36:58.246Z,18.90
2018-07-29T02:39:26.303Z,18.80
2018-07-29T02:41:54.342Z,18.80
2018-07-29T02:44:22.395Z,18.80
2018-07-29T02:46:50.448Z,18.90
2018-07-29T02:49:18.501Z,18.90
2018-07-29T02:51:46.547Z,19.00
2018-07-29T02:54:14.597Z,19.10
2018-07-29T02:56:42.673Z,19.00
2018-07-29T02:59:10.790Z,19.00
2018-07-29T03:01:38.825Z,19.00
2018-07-29T03:04:07.186Z,18.90
2018-07-29T03:06:35.234Z,18.90
2018-07-29T03:09:03.444Z,18.90
2018-07-29T03:11:31.507Z,18.90
2018-07-29T03:13:59.553Z,18.90
2018-07-29T03:16:27.610Z,18.90
2018-07-29T03:18:55.676Z,18.90
2018-07-29T03:21:23.718Z,18.90
2018-07-29T03:26:19.591Z,18.80
2018-07-29T03:28:47.653Z,18.80
2018-07-29T03:31:15.694Z,18.80
2018-07-29T03:33:43.741Z,18.80
2018-07-29T03:36:11.821Z,18.80
2018-07-29T03:38:39.874Z,18.80
2018-07-29T03:41:07.341Z,18.90
2018-07-29T03:46:01.902Z,18.90
2018-07-29T03:48:29.281Z,18.90
2018-07-29T03:50:56.665Z,18.80
2018-07-29T03:53:24.048Z,18.80
2018-07-29T03:58:18.800Z,18.80
2018-07-29T04:00:46.945Z,18.70
2018-07-29T04:03:14.999Z,18.70
2018-07-29T04:05:43.040Z,18.70
2018-07-29T04:08:11.097Z,18.70
2018-07-29T04:10:38.476Z,18.70
2018-07-29T04:13:05.848Z,18.80
2018-07-29T04:15:33.237Z,18.80
2018-07-29T04:18:00.629Z,18.80
2018-07-29T04:20:28.021Z,18.80
2018-07-29T04:22:55.405Z,18.80
2018-07-29T04:25:22.789Z,18.80
2018-07-29T04:27:50.162Z,18.80
2018-07-29T04:30:17.551Z,18.80
2018-07-29T04:32:44.954Z,18.80
2018-07-29T04:37:39.525Z,18.90
2018-07-29T04:42:34.761Z,19.00
2018-07-29T04:45:02.823Z,19.10
2018-07-29T04:47:30.214Z,19.00
2018-07-29T04:49:57.607Z,19.10
2018-07-29T04:52:25.053Z,19.00
2018-07-29T04:54:52.448Z,19.00
2018-07-29T04:57:20.501Z,19.00
2018-07-29T05:04:44.238Z,19.00
2018-07-29T05:07:11.616Z,19.10
2018-07-29T05:09:39.665Z,19.00
2018-07-29T05:12:07.730Z,19.10
2018-07-29T05:14:35.757Z,19.20
2018-07-29T05:19:31.029Z,19.40
2018-07-29T05:21:59.082Z,19.60
2018-07-29T05:24:27.117Z,19.60
2018-07-29T05:26:54.519Z,19.70
2018-07-29T05:29:21.896Z,19.90
2018-07-29T05:31:49.307Z,20.00
2018-07-29T05:36:44.518Z,20.20
2018-07-29T05:39:12.649Z,20.30
2018-07-29T05:44:08.405Z,20.60
2018-07-29T05:46:35.889Z,20.60
2018-07-29T05:49:03.269Z,20.70
2018-07-29T05:51:30.781Z,20.80
2018-07-29T05:53:58.156Z,20.80
2018-07-29T05:56:25.540Z,20.80
2018-07-29T05:58:52.925Z,20.90
2018-07-29T06:01:20.309Z,21.00
2018-07-29T06:03:48.354Z,21.10
2018-07-29T06:06:15.751Z,21.10
2018-07-29T06:08:43.154Z,21.00
2018-07-29T06:11:11.214Z,21.10
2018-07-29T06:16:05.817Z,21.00
2018-07-29T06:18:39.893Z,21.00
2018-07-29T06:21:07.310Z,21.00
2018-07-29T06:23:34.704Z,20.90
2018-07-29T06:26:02.143Z,20.90
2018-07-29T06:28:30.142Z,20.80
2018-07-29T06:30:58.196Z,20.80
2018-07-29T06:33:26.237Z,20.80
2018-07-29T06:35:54.283Z,20.80
2018-07-29T06:38:22.462Z,21.00
2018-07-29T06:40:50.101Z,21.10
2018-07-29T06:43:17.617Z,21.20
2018-07-29T06:45:44.992Z,21.20
2018-07-29T06:48:12.386Z,21.20
2018-07-29T06:50:39.845Z,21.30
2018-07-29T06:53:07.846Z,21.30
2018-07-29T06:55:35.899Z,21.40
2018-07-29T06:58:03.298Z,21.50
2018-07-29T07:00:31.338Z,21.60
2018-07-29T07:02:59.382Z,21.60
2018-07-29T07:05:26.785Z,21.70
2018-07-29T07:07:54.173Z,21.80
2018-07-29T07:10:22.221Z,21.80
2018-07-29T07:12:49.609Z,21.90
2018-07-29T07:15:17.023Z,22.00
2018-07-29T07:17:44.408Z,22.10
2018-07-29T07:20:12.454Z,22.30
2018-07-29T07:22:39.853Z,22.30
2018-07-29T07:25:07.897Z,22.40
2018-07-29T07:27:35.945Z,22.40
2018-07-29T07:32:31.186Z,22.50
2018-07-29T07:34:59.239Z,22.60
2018-07-29T07:37:27.294Z,22.70
2018-07-29T07:39:55.330Z,22.70
2018-07-29T07:42:22.726Z,22.80
2018-07-29T07:44:50.766Z,22.90
2018-07-29T07:47:18.169Z,22.80
2018-07-29T07:49:46.218Z,22.80
2018-07-29T07:52:14.277Z,22.80
2018-07-29T07:54:42.362Z,22.80
2018-07-29T07:57:10.385Z,22.80
2018-07-29T07:59:37.788Z,22.90
2018-07-29T08:02:05.197Z,23.00
2018-07-29T08:04:33.226Z,23.20
2018-07-29T08:07:01.313Z,23.30
2018-07-29T08:14:24.966Z,23.60
2018-07-29T08:16:53.006Z,23.70
2018-07-29T08:19:21.069Z,24.00
2018-07-29T08:21:49.106Z,24.10
2018-07-29T08:24:17.176Z,24.00
2018-07-29T08:26:44.554Z,24.10
2018-07-29T08:29:11.951Z,24.10
2018-07-29T08:31:39.334Z,24.20
2018-07-29T08:34:06.726Z,24.30
2018-07-29T08:36:34.777Z,24.30
2018-07-29T08:39:02.245Z,24.40
2018-07-29T08:41:29.619Z,24.50
2018-07-29T08:46:24.193Z,24.60
2018-07-29T08:48:51.630Z,24.80
2018-07-29T08:51:19.674Z,24.90
2018-07-29T08:53:47.070Z,25.10
2018-07-29T08:58:41.632Z,25.20
2018-07-29T09:03:36.884Z,25.20
2018-07-29T09:06:04.292Z,25.20
2018-07-29T09:08:32.358Z,25.10
2018-07-29T09:11:00.433Z,25.10
2018-07-29T09:13:28.491Z,25.00
2018-07-29T09:15:56.562Z,25.20
2018-07-29T09:18:23.966Z,25.20
2018-07-29T09:20:52.053Z,25.30
2018-07-29T09:23:20.166Z,25.50
2018-07-29T09:25:48.226Z,25.60
2018-07-29T09:28:16.269Z,25.70
2018-07-29T09:30:43.752Z,25.80
2018-07-29T09:33:11.033Z,25.90
2018-07-29T09:38:06.926Z,26.00
2018-07-29T09:40:34.506Z,26.10
2018-07-29T09:43:02.587Z,26.20
2018-07-29T09:45:30.744Z,26.20
2018-07-29T09:50:26.609Z,26.20
2018-07-29T09:55:22.563Z,26.00
2018-07-29T09:57:50.758Z,25.90
2018-07-29T10:00:23.086Z,26.00
2018-07-29T10:02:51.154Z,26.20
2018-07-29T10:05:19.286Z,26.30
2018-07-29T10:07:47.443Z,26.40
2018-07-29T10:10:15.593Z,26.50
2018-07-29T10:12:42.985Z,26.60
2018-07-29T10:15:10.381Z,26.60
2018-07-29T10:17:38.534Z,26.60
2018-07-29T10:20:06.707Z,26.80
2018-07-29T10:22:34.075Z,26.90
2018-07-29T10:25:01.632Z,27.10
2018-07-29T10:27:28.997Z,27.30
2018-07-29T10:29:56.378Z,27.50
2018-07-29T10:32:24.437Z,27.60
2018-07-29T10:34:52.594Z,27.80
2018-07-29T10:37:20.731Z,27.80
2018-07-29T10:39:48.785Z,27.80
2018-07-29T10:42:16.183Z,27.60
2018-07-29T10:44:44.226Z,27.50
2018-07-29T10:47:12.281Z,27.40
2018-07-29T10:49:40.325Z,27.60
2018-07-29T10:52:08.500Z,27.70
2018-07-29T10:54:39.657Z,27.90
2018-07-29T10:57:07.722Z,28.10
2018-07-29T10:59:35.766Z,28.30
2018-07-29T11:04:31.637Z,28.90
2018-07-29T11:06:59.682Z,29.30
2018-07-29T11:09:27.730Z,29.60
2018-07-29T11:11:55.770Z,29.50
2018-07-29T11:14:23.922Z,29.80
2018-07-29T11:16:51.949Z,30.00
2018-07-29T11:21:47.825Z,30.20
2018-07-29T11:24:15.862Z,30.10
2018-07-29T11:26:43.910Z,30.00
2018-07-29T11:29:11.626Z,30.20
2018-07-29T11:34:06.202Z,30.70
2018-07-29T11:39:01.410Z,31.70
2018-07-29T11:41:29.622Z,31.80
2018-07-29T11:43:57.672Z,31.70
2018-07-29T11:46:25.726Z,31.10
2018-07-29T11:48:53.753Z,31.10
2018-07-29T11:51:21.801Z,31.10
2018-07-29T11:53:49.855Z,31.10
2018-07-29T11:56:17.225Z,30.90
2018-07-29T11:58:45.292Z,31.00
2018-07-29T12:01:13.322Z,31.60
2018-07-29T12:03:40.708Z,32.00
2018-07-29T12:06:08.092Z,32.00
2018-07-29T12:08:36.131Z,31.80
2018-07-29T12:11:04.149Z,31.60
2018-07-29T12:13:32.206Z,31.50
2018-07-29T12:15:59.589Z,31.70
2018-07-29T12:18:27.015Z,32.30
2018-07-29T12:20:54.620Z,32.60
2018-07-29T12:23:22.017Z,32.70
2018-07-29T12:25:50.054Z,33.20
2018-07-29T12:30:44.836Z,33.60
2018-07-29T12:35:39.397Z,34.10
2018-07-29T12:38:07.429Z,34.20
2018-07-29T12:40:34.814Z,33.90
2018-07-29T12:43:02.199Z,33.40
2018-07-29T12:45:29.582Z,33.00
2018-07-29T12:47:56.974Z,33.20
2018-07-29T12:50:24.373Z,32.30
2018-07-29T12:57:46.779Z,32.80
2018-07-29T13:00:14.154Z,32.50
2018-07-29T13:02:41.549Z,32.40
2018-07-29T13:05:08.953Z,32.70
2018-07-29T13:07:36.329Z,32.90
2018-07-29T13:10:04.197Z,33.30
2018-07-29T13:12:31.573Z,33.20
2018-07-29T13:14:58.954Z,33.00
2018-07-29T13:17:26.338Z,33.20
2018-07-29T13:22:20.896Z,33.40
2018-07-29T13:24:48.285Z,33.00
2018-07-29T13:27:15.670Z,33.20
2018-07-29T13:29:43.041Z,33.80
2018-07-29T13:32:10.507Z,34.50
2018-07-29T13:34:37.817Z,34.90
2018-07-29T13:37:05.219Z,35.20
2018-07-29T13:39:32.605Z,35.30
2018-07-29T13:41:59.977Z,35.20
2018-07-29T13:44:27.377Z,35.20
2018-07-29T13:46:54.833Z,35.20
2018-07-29T13:49:22.252Z,35.30
2018-07-29T13:51:49.625Z,35.40
2018-07-29T13:54:17.014Z,35.00
2018-07-29T13:56:44.485Z,35.10
2018-07-29T13:59:11.874Z,35.30
2018-07-29T14:01:39.275Z,35.50
2018-07-29T14:04:06.648Z,35.50
2018-07-29T14:06:34.110Z,35.60
2018-07-29T14:09:01.480Z,35.80
2018-07-29T14:11:29.534Z,35.50
2018-07-29T14:16:24.143Z,35.60
2018-07-29T14:18:51.469Z,35.60
2018-07-29T14:21:18.849Z,35.60
2018-07-29T14:23:46.229Z,35.20
2018-07-29T14:28:41.442Z,35.00
2018-07-29T14:31:08.830Z,35.10
2018-07-29T14:33:36.211Z,35.10
2018-07-29T14:36:04.275Z,34.80
2018-07-29T14:38:31.752Z,34.90
2018-07-29T14:40:59.122Z,35.00
2018-07-29T14:43:26.505Z,34.80
2018-07-29T14:45:53.909Z,35.00
2018-07-29T14:48:21.381Z,35.10
2018-07-29T14:50:48.773Z,35.20
2018-07-29T14:53:16.161Z,35.30
2018-07-29T14:58:11.370Z,35.20
2018-07-29T15:00:38.753Z,35.30
2018-07-29T15:03:06.147Z,35.30
2018-07-29T15:05:34.193Z,35.40
2018-07-29T15:08:02.241Z,35.20
2018-07-29T15:10:30.989Z,35.20
2018-07-29T15:13:00.465Z,35.20
2018-07-29T15:15:27.985Z,35.20
2018-07-29T15:17:55.421Z,35.20
2018-07-29T15:20:22.829Z,35.20
2018-07-29T15:22:51.005Z,35.20
2018-07-29T15:25:18.384Z,35.20
2018-07-29T15:27:45.851Z,34.90
2018-07-29T15:30:13.239Z,34.60
2018-07-29T15:32:40.678Z,34.30
2018-07-29T15:35:09.002Z,34.20
2018-07-29T15:37:36.642Z,33.40
2018-07-29T15:40:04.898Z,33.30
2018-07-29T15:42:32.994Z,33.70
2018-07-29T15:45:01.092Z,33.80
2018-07-29T15:47:29.117Z,33.60
2018-07-29T15:49:56.619Z,33.50
2018-07-29T15:52:23.960Z,33.40
2018-07-29T15:54:51.365Z,33.40
2018-07-29T15:57:19.613Z,33.30
2018-07-29T15:59:47.715Z,33.40
2018-07-29T16:02:15.057Z,33.80
2018-07-29T16:04:42.429Z,34.20
2018-07-29T16:07:10.474Z,34.60
2018-07-29T16:09:38.510Z,34.80
2018-07-29T16:12:06.602Z,34.90
2018-07-29T16:14:34.633Z,35.10
2018-07-29T16:17:02.293Z,34.80
2018-07-29T16:19:29.693Z,34.90
2018-07-29T16:21:57.734Z,35.00
2018-07-29T16:24:25.135Z,34.60
2018-07-29T16:26:53.314Z,34.60
2018-07-29T16:29:20.733Z,34.50
2018-07-29T16:31:48.781Z,34.50
2018-07-29T16:34:16.838Z,34.60
2018-07-29T16:36:44.894Z,34.40
2018-07-29T16:39:12.877Z,34.30
2018-07-29T16:41:40.263Z,34.20
2018-07-29T16:44:08.673Z,33.90
2018-07-29T16:46:36.729Z,34.00
2018-07-29T16:49:04.918Z,34.10
2018-07-29T16:51:32.975Z,34.00
2018-07-29T16:54:01.042Z,33.80
2018-07-29T16:56:29.881Z,33.50
2018-07-29T16:58:57.301Z,33.50
2018-07-29T17:01:24.693Z,33.50
2018-07-29T17:03:52.097Z,33.60
2018-07-29T17:06:19.516Z,33.50
2018-07-29T17:08:46.908Z,33.00
2018-07-29T17:11:14.279Z,33.00
2018-07-29T17:13:42.321Z,33.00
2018-07-29T17:16:09.704Z,33.00
2018-07-29T17:18:37.154Z,33.10
2018-07-29T17:21:05.191Z,32.90
2018-07-29T17:23:33.224Z,32.90
2018-07-29T17:26:01.262Z,32.90
2018-07-29T17:28:29.294Z,32.90
2018-07-29T17:30:57.330Z,32.80
2018-07-29T17:33:25.496Z,32.80
2018-07-29T17:35:53.919Z,32.70
2018-07-29T17:38:21.994Z,32.50
2018-07-29T17:40:50.044Z,32.70
2018-07-29T17:43:18.110Z,32.40
2018-07-29T17:45:46.145Z,32.30
2018-07-29T17:48:14.190Z,32.10
2018-07-29T17:50:41.564Z,31.90
2018-07-29T17:53:08.946Z,31.80
2018-07-29T17:55:36.324Z,31.60
2018-07-29T17:58:04.357Z,31.20
2018-07-29T18:00:32.403Z,30.90
2018-07-29T18:03:00.863Z,30.50
2018-07-29T18:05:29.043Z,30.10
2018-07-29T18:07:57.091Z,29.90
2018-07-29T18:10:25.185Z,29.70
2018-07-29T18:12:53.242Z,29.50
2018-07-29T18:15:21.273Z,29.30
2018-07-29T18:17:48.661Z,29.30
2018-07-29T18:20:16.811Z,29.20
2018-07-29T18:22:44.210Z,29.10
2018-07-29T18:25:11.570Z,29.00
2018-07-29T18:27:39.044Z,28.90
2018-07-29T18:30:06.713Z,28.70
2018-07-29T18:32:34.093Z,28.70
2018-07-29T18:35:01.493Z,28.70
2018-07-29T18:37:29.105Z,28.60
2018-07-29T18:39:56.510Z,28.50
2018-07-29T18:42:23.921Z,28.40
2018-07-29T18:44:51.314Z,28.40
2018-07-29T18:47:18.698Z,28.30
2018-07-29T18:49:46.086Z,28.30
2018-07-29T18:52:13.461Z,28.20
2018-07-29T18:54:40.856Z,28.20
2018-07-29T18:57:08.340Z,28.10
2018-07-29T18:59:35.723Z,28.00
2018-07-29T19:02:03.796Z,27.90
2018-07-29T19:04:31.829Z,27.90
2018-07-29T19:06:59.900Z,27.80
2018-07-29T19:09:27.950Z,27.70
2018-07-29T19:11:56.658Z,27.60
2018-07-29T19:14:24.664Z,27.50
2018-07-29T19:16:52.045Z,27.40
2018-07-29T19:21:47.350Z,27.30
2018-07-29T19:24:14.883Z,27.20
2018-07-29T19:26:42.202Z,27.10
2018-07-29T19:29:09.592Z,27.10
2018-07-29T19:31:36.978Z,27.00
2018-07-29T19:34:04.451Z,27.00
2018-07-29T19:41:28.170Z,26.90
2018-07-29T19:43:56.214Z,26.90
2018-07-29T19:46:23.606Z,26.90
2018-07-29T19:51:18.822Z,26.80
2018-07-29T19:53:48.510Z,26.80
2018-07-29T19:56:16.542Z,26.80
2018-07-29T20:01:12.406Z,26.70
2018-07-29T20:03:40.480Z,26.70
2018-07-29T20:06:08.574Z,26.70
2018-07-29T20:08:36.626Z,26.60
2018-07-29T20:11:04.744Z,26.60
2018-07-29T20:13:32.886Z,26.60
2018-07-29T20:16:00.990Z,26.50
2018-07-29T20:18:28.349Z,26.50
2018-07-29T20:20:55.733Z,26.30
2018-07-29T20:23:23.810Z,26.20
2018-07-29T20:25:51.209Z,26.10
2018-07-29T20:28:18.612Z,26.00
2018-07-29T20:35:41.846Z,25.70
2018-07-29T20:40:36.642Z,25.60
2018-07-29T20:43:04.089Z,25.50
2018-07-29T20:47:59.322Z,25.40
2018-07-29T20:50:27.410Z,25.40
2018-07-29T20:52:55.494Z,25.30
2018-07-29T20:55:23.547Z,25.30
2018-07-29T20:57:50.931Z,25.20
2018-07-29T21:00:19.340Z,25.20
2018-07-29T21:05:13.905Z,25.10
2018-07-29T21:07:41.288Z,24.90
2018-07-29T21:10:08.695Z,24.90
2018-07-29T21:12:36.113Z,24.80
2018-07-29T21:15:03.757Z,24.80
2018-07-29T21:17:31.157Z,24.70
2018-07-29T21:23:55.039Z,24.60
2018-07-29T21:26:22.437Z,24.50
2018-07-29T21:28:49.797Z,24.40
2018-07-29T21:31:17.193Z,24.40
2018-07-29T21:33:44.581Z,24.40
2018-07-29T21:36:11.997Z,24.20
2018-07-29T21:41:06.614Z,24.10
2018-07-29T21:43:33.973Z,24.10
2018-07-29T21:46:01.510Z,24.00
2018-07-29T21:48:29.560Z,24.10
2018-07-29T21:50:56.952Z,24.00
2018-07-29T21:53:24.435Z,24.00
2018-07-29T21:55:51.819Z,24.00
2018-07-29T22:00:47.050Z,23.80
2018-07-29T22:03:15.130Z,23.70
2018-07-29T22:05:42.531Z,23.70
2018-07-29T22:10:38.470Z,23.60
2018-07-29T22:13:06.521Z,23.60
2018-07-29T22:15:33.937Z,23.50
2018-07-29T22:18:01.971Z,23.50
2018-07-29T22:20:30.010Z,23.40
2018-07-29T22:22:58.071Z,23.40
2018-07-29T22:25:31.484Z,23.40
2018-07-29T22:30:32.487Z,23.30
2018-07-29T22:33:00.578Z,23.30
2018-07-29T22:37:55.774Z,23.20
2018-07-29T22:40:23.838Z,23.20
2018-07-29T22:42:51.238Z,23.20
2018-07-29T22:45:18.634Z,23.20
2018-07-29T22:47:46.698Z,23.00
2018-07-29T22:50:14.085Z,23.00
2018-07-29T22:52:41.497Z,22.90
2018-07-29T22:55:08.925Z,22.90
2018-07-29T22:57:36.301Z,22.90
2018-07-29T23:04:59.269Z,22.80
2018-07-29T23:07:27.329Z,22.80
2018-07-29T23:10:02.433Z,22.70
2018-07-29T23:14:57.106Z,22.70
2018-07-29T23:17:24.783Z,22.70
2018-07-29T23:19:52.169Z,22.70
2018-07-29T23:22:19.579Z,22.60
2018-07-29T23:24:46.962Z,22.60
2018-07-29T23:27:14.996Z,22.50
2018-07-29T23:29:42.481Z,22.40
2018-07-29T23:34:37.381Z,22.40
2018-07-29T23:37:04.783Z,22.40
2018-07-29T23:39:32.177Z,22.30
2018-07-29T23:41:59.585Z,22.30
2018-07-29T23:44:27.671Z,22.30
2018-07-29T23:46:55.717Z,22.20
2018-07-29T23:49:23.768Z,22.20
2018-07-29T23:54:19.934Z,22.10
2018-07-29T23:56:48.312Z,22.10
2018-07-29T23:59:15.693Z,22.00
